sensor_id;sensor_type;location;lat;lon;timestamp;pressure;altitude;pressure_sealevel;temperature;humidity
60375;BME280;70244;48.792;9.172;2023-10-31T05:16:42;96277.46;;;20.40;72.19
60375;BME280;70244;48.792;9.172;2023-10-31T05:19:12;96273.93;;;20.40;72.41
60375;BME280;70244;48.792;9.172;2023-10-31T05:21:19;96271.54;;;20.35;72.51
60375;BME280;70244;48.792;9.172;2023-10-31T05:23:45;96275.34;;;20.37;72.27
60375;BME280;70244;48.792;9.172;2023-10-31T05:26:16;96280.22;;;20.41;72.40
60375;BME280;70244;48.792;9.172;2023-10-31T05:28:46;96282.87;;;20.42;72.06
60375;BME280;70244;48.792;9.172;2023-10-31T05:31:16;96283.77;;;20.58;71.91
60375;BME280;70244;48.792;9.172;2023-10-31T05:33:47;96277.59;;;20.38;72.39
60375;BME280;70244;48.792;9.172;2023-10-31T05:36:18;96276.33;;;20.48;72.38
60375;BME280;70244;48.792;9.172;2023-10-31T05:38:48;96281.51;;;20.39;72.51
60375;BME280;70244;48.792;9.172;2023-10-31T05:41:19;96287.66;;;20.30;73.08
60375;BME280;70244;48.792;9.172;2023-10-31T05:43:49;96284.12;;;20.55;72.53
60375;BME280;70244;48.792;9.172;2023-10-31T05:46:20;96288.32;;;20.60;72.36
60375;BME280;70244;48.792;9.172;2023-10-31T05:48:50;96285.47;;;20.87;71.47
60375;BME280;70244;48.792;9.172;2023-10-31T05:51:21;96289.95;;;21.00;71.32
60375;BME280;70244;48.792;9.172;2023-10-31T05:53:51;96292.12;;;21.40;70.17
60375;BME280;70244;48.792;9.172;2023-10-31T05:56:22;96303.06;;;21.47;70.11
60375;BME280;70244;48.792;9.172;2023-10-31T05:58:52;96311.71;;;21.61;69.63
60375;BME280;70244;48.792;9.172;2023-10-31T06:01:22;96312.14;;;21.79;68.61
60375;BME280;70244;48.792;9.172;2023-10-31T06:03:53;96313.14;;;21.80;69.04
60375;BME280;70244;48.792;9.172;2023-10-31T06:06:24;96314.17;;;21.85;68.68
60375;BME280;70244;48.792;9.172;2023-10-31T06:08:54;96315.18;;;21.86;68.54
60375;BME280;70244;48.792;9.172;2023-10-31T06:11:25;96312.95;;;21.92;68.35
60375;BME280;70244;48.792;9.172;2023-10-31T06:13:55;96311.32;;;21.98;68.24
60375;BME280;70244;48.792;9.172;2023-10-31T06:16:26;96317.86;;;22.09;67.70
60375;BME280;70244;48.792;9.172;2023-10-31T06:18:57;96322.70;;;22.05;67.85
60375;BME280;70244;48.792;9.172;2023-10-31T06:21:27;96321.22;;;22.08;67.75
60375;BME280;70244;48.792;9.172;2023-10-31T06:23:58;96328.90;;;21.96;68.19
60375;BME280;70244;48.792;9.172;2023-10-31T06:26:28;96327.49;;;22.08;67.76
60375;BME280;70244;48.792;9.172;2023-10-31T06:28:58;96328.84;;;22.06;68.01
60375;BME280;70244;48.792;9.172;2023-10-31T06:31:29;96328.37;;;22.28;67.25
60375;BME280;70244;48.792;9.172;2023-10-31T06:33:59;96334.96;;;22.24;67.39
60375;BME280;70244;48.792;9.172;2023-10-31T06:36:30;96342.51;;;22.16;67.44
60375;BME280;70244;48.792;9.172;2023-10-31T06:39:00;96349.26;;;22.24;66.93
60375;BME280;70244;48.792;9.172;2023-10-31T06:41:31;96356.29;;;22.31;66.78
60375;BME280;70244;48.792;9.172;2023-10-31T06:44:01;96366.33;;;22.35;66.10
60375;BME280;70244;48.792;9.172;2023-10-31T06:46:32;96373.43;;;22.16;66.82
60375;BME280;70244;48.792;9.172;2023-10-31T06:49:03;96380.22;;;22.20;66.31
60375;BME280;70244;48.792;9.172;2023-10-31T06:51:33;96382.79;;;22.02;66.24
60375;BME280;70244;48.792;9.172;2023-10-31T06:54:04;96385.73;;;22.06;66.65
60375;BME280;70244;48.792;9.172;2023-10-31T06:56:34;96385.17;;;22.01;66.99
60375;BME280;70244;48.792;9.172;2023-10-31T06:59:05;96393.38;;;21.81;67.69
60375;BME280;70244;48.792;9.172;2023-10-31T07:01:36;96397.29;;;21.97;67.27
60375;BME280;70244;48.792;9.172;2023-10-31T07:04:06;96397.73;;;21.82;67.39
60375;BME280;70244;48.792;9.172;2023-10-31T07:06:37;96390.57;;;22.07;66.53
60375;BME280;70244;48.792;9.172;2023-10-31T07:09:07;96396.42;;;21.88;67.31
60375;BME280;70244;48.792;9.172;2023-10-31T07:11:38;96398.65;;;22.12;66.32
60375;BME280;70244;48.792;9.172;2023-10-31T07:14:09;96403.34;;;21.94;66.50
60375;BME280;70244;48.792;9.172;2023-10-31T07:16:39;96404.28;;;21.74;66.79
60375;BME280;70244;48.792;9.172;2023-10-31T07:19:10;96409.78;;;21.66;67.09
60375;BME280;70244;48.792;9.172;2023-10-31T07:21:41;96409.01;;;21.81;67.02
60375;BME280;70244;48.792;9.172;2023-10-31T07:24:12;96415.80;;;21.53;67.79
60375;BME280;70244;48.792;9.172;2023-10-31T07:26:42;96407.35;;;21.67;67.54
60375;BME280;70244;48.792;9.172;2023-10-31T07:29:13;96405.33;;;21.75;67.40
60375;BME280;70244;48.792;9.172;2023-10-31T07:31:44;96410.58;;;21.87;67.00
60375;BME280;70244;48.792;9.172;2023-10-31T07:34:14;96413.34;;;21.69;67.77
60375;BME280;70244;48.792;9.172;2023-10-31T07:36:45;96412.94;;;21.90;67.53
60375;BME280;70244;48.792;9.172;2023-10-31T07:39:15;96413.13;;;21.90;67.55
60375;BME280;70244;48.792;9.172;2023-10-31T07:41:46;96419.16;;;22.04;67.18
60375;BME280;70244;48.792;9.172;2023-10-31T07:44:17;96425.73;;;21.95;67.13
60375;BME280;70244;48.792;9.172;2023-10-31T07:46:47;96434.24;;;21.62;68.43
60375;BME280;70244;48.792;9.172;2023-10-31T07:49:18;96434.63;;;21.55;68.61
60375;BME280;70244;48.792;9.172;2023-10-31T07:51:48;96437.98;;;21.35;69.51
60375;BME280;70244;48.792;9.172;2023-10-31T07:54:19;96443.08;;;21.65;68.65
60375;BME280;70244;48.792;9.172;2023-10-31T07:56:49;96444.76;;;21.56;69.73
60375;BME280;70244;48.792;9.172;2023-10-31T07:59:20;96442.74;;;22.24;64.07
60375;BME280;70244;48.792;9.172;2023-10-31T08:01:51;96442.28;;;22.55;56.35
60375;BME280;70244;48.792;9.172;2023-10-31T08:04:21;96441.34;;;22.20;57.02
60375;BME280;70244;48.792;9.172;2023-10-31T08:06:52;96439.93;;;22.18;55.87
60375;BME280;70244;48.792;9.172;2023-10-31T08:09:23;96443.24;;;21.20;59.49
60375;BME280;70244;48.792;9.172;2023-10-31T08:11:54;96444.19;;;21.09;57.25
60375;BME280;70244;48.792;9.172;2023-10-31T08:14:24;96442.57;;;20.32;58.99
60375;BME280;70244;48.792;9.172;2023-10-31T08:16:55;96448.59;;;20.87;57.98
60375;BME280;70244;48.792;9.172;2023-10-31T08:19:26;96450.35;;;21.11;59.09
60375;BME280;70244;48.792;9.172;2023-10-31T08:21:56;96460.50;;;21.25;62.09
60375;BME280;70244;48.792;9.172;2023-10-31T08:24:27;96456.88;;;21.83;60.07
60375;BME280;70244;48.792;9.172;2023-10-31T08:26:58;96462.02;;;22.32;60.19
60375;BME280;70244;48.792;9.172;2023-10-31T08:29:29;96462.77;;;22.08;60.42
60375;BME280;70244;48.792;9.172;2023-10-31T08:31:59;96470.11;;;21.76;61.76
60375;BME280;70244;48.792;9.172;2023-10-31T08:34:29;96466.43;;;22.28;59.24
60375;BME280;70244;48.792;9.172;2023-10-31T08:36:59;96468.18;;;22.39;59.76
60375;BME280;70244;48.792;9.172;2023-10-31T08:39:30;96475.43;;;22.62;60.95
60375;BME280;70244;48.792;9.172;2023-10-31T08:42:01;96475.27;;;22.61;60.00
60375;BME280;70244;48.792;9.172;2023-10-31T08:44:31;96485.17;;;22.56;59.42
60375;BME280;70244;48.792;9.172;2023-10-31T08:47:02;96488.61;;;22.44;60.25
60375;BME280;70244;48.792;9.172;2023-10-31T08:49:32;96483.79;;;22.49;59.17
60375;BME280;70244;48.792;9.172;2023-10-31T08:52:03;96485.45;;;22.37;61.21
60375;BME280;70244;48.792;9.172;2023-10-31T08:54:33;96486.03;;;22.33;58.34
60375;BME280;70244;48.792;9.172;2023-10-31T08:57:04;96485.44;;;22.51;61.07
60375;BME280;70244;48.792;9.172;2023-10-31T08:59:35;96484.77;;;22.12;62.22
60375;BME280;70244;48.792;9.172;2023-10-31T09:02:05;96484.11;;;21.11;64.62
60375;BME280;70244;48.792;9.172;2023-10-31T09:04:36;96478.70;;;20.85;66.04
60375;BME280;70244;48.792;9.172;2023-10-31T09:07:07;96471.95;;;21.44;64.81
60375;BME280;70244;48.792;9.172;2023-10-31T09:09:37;96483.35;;;21.08;68.65
60375;BME280;70244;48.792;9.172;2023-10-31T09:12:08;96487.25;;;21.45;67.14
60375;BME280;70244;48.792;9.172;2023-10-31T09:14:38;96494.05;;;21.64;66.98
60375;BME280;70244;48.792;9.172;2023-10-31T09:17:09;96495.64;;;21.87;65.44
60375;BME280;70244;48.792;9.172;2023-10-31T09:19:39;96499.78;;;21.91;65.50
60375;BME280;70244;48.792;9.172;2023-10-31T09:22:09;96497.60;;;21.57;66.89
60375;BME280;70244;48.792;9.172;2023-10-31T09:24:40;96506.84;;;21.61;66.81
60375;BME280;70244;48.792;9.172;2023-10-31T09:27:10;96504.14;;;21.68;66.72
60375;BME280;70244;48.792;9.172;2023-10-31T09:29:41;96501.96;;;22.00;66.09
60375;BME280;70244;48.792;9.172;2023-10-31T09:32:12;96498.71;;;21.98;66.33
60375;BME280;70244;48.792;9.172;2023-10-31T09:34:42;96494.58;;;21.78;67.22
60375;BME280;70244;48.792;9.172;2023-10-31T09:37:14;96490.03;;;21.80;67.24
60375;BME280;70244;48.792;9.172;2023-10-31T09:39:43;96490.38;;;21.88;67.07
60375;BME280;70244;48.792;9.172;2023-10-31T09:42:14;96492.75;;;21.77;67.60
60375;BME280;70244;48.792;9.172;2023-10-31T09:44:45;96492.43;;;21.97;67.10
60375;BME280;70244;48.792;9.172;2023-10-31T09:47:16;96500.90;;;21.72;67.80
60375;BME280;70244;48.792;9.172;2023-10-31T09:49:46;96497.93;;;21.79;67.55
60375;BME280;70244;48.792;9.172;2023-10-31T09:52:17;96494.77;;;21.76;67.78
60375;BME280;70244;48.792;9.172;2023-10-31T09:54:49;96495.59;;;21.98;67.29
60375;BME280;70244;48.792;9.172;2023-10-31T09:57:18;96493.41;;;21.91;67.39
60375;BME280;70244;48.792;9.172;2023-10-31T09:59:48;96491.02;;;21.90;67.36
60375;BME280;70244;48.792;9.172;2023-10-31T10:02:19;96491.31;;;21.47;68.54
60375;BME280;70244;48.792;9.172;2023-10-31T10:04:50;96490.59;;;21.60;68.03
60375;BME280;70244;48.792;9.172;2023-10-31T10:07:21;96492.63;;;21.73;67.75
60375;BME280;70244;48.792;9.172;2023-10-31T10:09:51;96490.45;;;21.60;68.25
60375;BME280;70244;48.792;9.172;2023-10-31T10:12:22;96492.26;;;21.68;67.74
60375;BME280;70244;48.792;9.172;2023-10-31T10:14:52;96496.35;;;21.87;67.47
60375;BME280;70244;48.792;9.172;2023-10-31T10:17:24;96491.51;;;21.93;67.24
60375;BME280;70244;48.792;9.172;2023-10-31T10:22:28;96495.00;;;21.81;67.28
60375;BME280;70244;48.792;9.172;2023-10-31T10:24:54;96501.77;;;21.88;67.21
60375;BME280;70244;48.792;9.172;2023-10-31T10:27:25;96504.95;;;21.86;67.35
60375;BME280;70244;48.792;9.172;2023-10-31T10:29:56;96506.79;;;21.99;67.01
60375;BME280;70244;48.792;9.172;2023-10-31T10:32:27;96509.23;;;22.10;66.70
60375;BME280;70244;48.792;9.172;2023-10-31T10:34:57;96510.93;;;22.13;66.68
60375;BME280;70244;48.792;9.172;2023-10-31T10:37:29;96510.26;;;22.16;66.40
60375;BME280;70244;48.792;9.172;2023-10-31T10:39:58;96523.67;;;21.96;66.94
60375;BME280;70244;48.792;9.172;2023-10-31T10:42:32;96525.33;;;21.95;66.84
60375;BME280;70244;48.792;9.172;2023-10-31T10:45:03;96519.81;;;22.05;66.59
60375;BME280;70244;48.792;9.172;2023-10-31T10:47:31;96519.74;;;22.04;66.71
60375;BME280;70244;48.792;9.172;2023-10-31T10:50:01;96520.29;;;21.91;67.02
60375;BME280;70244;48.792;9.172;2023-10-31T10:52:38;96525.62;;;21.97;66.81
60375;BME280;70244;48.792;9.172;2023-10-31T10:55:04;96529.49;;;21.91;67.07
60375;BME280;70244;48.792;9.172;2023-10-31T10:57:37;96528.34;;;22.04;66.50
60375;BME280;70244;48.792;9.172;2023-10-31T11:00:05;96526.45;;;21.93;66.91
60375;BME280;70244;48.792;9.172;2023-10-31T11:02:35;96528.11;;;21.97;66.89
60375;BME280;70244;48.792;9.172;2023-10-31T11:05:05;96525.79;;;21.96;66.92
60375;BME280;70244;48.792;9.172;2023-10-31T11:07:37;96524.35;;;21.98;66.89
60375;BME280;70244;48.792;9.172;2023-10-31T11:10:08;96525.31;;;22.06;66.68
60375;BME280;70244;48.792;9.172;2023-10-31T11:12:37;96524.53;;;21.82;67.27
60375;BME280;70244;48.792;9.172;2023-10-31T11:15:10;96527.14;;;21.90;67.10
60375;BME280;70244;48.792;9.172;2023-10-31T11:17:40;96527.96;;;21.79;67.41
60375;BME280;70244;48.792;9.172;2023-10-31T11:20:11;96528.16;;;21.84;67.27
60375;BME280;70244;48.792;9.172;2023-10-31T11:22:40;96529.76;;;21.89;67.05
60375;BME280;70244;48.792;9.172;2023-10-31T11:25:12;96530.27;;;21.92;67.07
60375;BME280;70244;48.792;9.172;2023-10-31T11:27:40;96526.79;;;21.92;66.99
60375;BME280;70244;48.792;9.172;2023-10-31T11:30:20;96528.88;;;21.88;67.17
60375;BME280;70244;48.792;9.172;2023-10-31T11:32:47;96529.10;;;22.05;66.48
60375;BME280;70244;48.792;9.172;2023-10-31T11:35:12;96535.48;;;22.03;66.68
60375;BME280;70244;48.792;9.172;2023-10-31T11:37:43;96535.45;;;21.64;67.70
60375;BME280;70244;48.792;9.172;2023-10-31T11:40:16;96535.23;;;21.90;67.05
60375;BME280;70244;48.792;9.172;2023-10-31T11:42:48;96533.06;;;22.86;66.77
60375;BME280;70244;48.792;9.172;2023-10-31T11:47:46;96538.26;;;22.45;66.93
60375;BME280;70244;48.792;9.172;2023-10-31T11:50:17;96535.35;;;22.47;66.72
60375;BME280;70244;48.792;9.172;2023-10-31T11:55:18;96536.51;;;22.65;66.68
60375;BME280;70244;48.792;9.172;2023-10-31T11:57:48;96547.87;;;22.34;67.46
60375;BME280;70244;48.792;9.172;2023-10-31T12:00:21;96545.17;;;22.81;65.98
60375;BME280;70244;48.792;9.172;2023-10-31T12:02:58;96540.60;;;22.54;66.66
60375;BME280;70244;48.792;9.172;2023-10-31T12:05:20;96542.61;;;22.43;66.75
60375;BME280;70244;48.792;9.172;2023-10-31T12:07:51;96552.57;;;22.45;66.72
60375;BME280;70244;48.792;9.172;2023-10-31T12:10:22;96546.08;;;22.60;66.23
60375;BME280;70244;48.792;9.172;2023-10-31T12:12:53;96553.71;;;22.34;66.92
60375;BME280;70244;48.792;9.172;2023-10-31T12:15:23;96550.54;;;22.44;66.40
60375;BME280;70244;48.792;9.172;2023-10-31T12:17:58;96551.65;;;22.39;66.52
60375;BME280;70244;48.792;9.172;2023-10-31T12:20:24;96554.82;;;22.37;66.61
60375;BME280;70244;48.792;9.172;2023-10-31T12:23:02;96556.94;;;22.36;66.63
60375;BME280;70244;48.792;9.172;2023-10-31T12:25:25;96559.79;;;22.05;67.42
60375;BME280;70244;48.792;9.172;2023-10-31T12:27:55;96564.98;;;22.28;66.70
60375;BME280;70244;48.792;9.172;2023-10-31T12:30:26;96564.99;;;22.28;66.76
60375;BME280;70244;48.792;9.172;2023-10-31T12:32:56;96566.92;;;22.01;67.32
60375;BME280;70244;48.792;9.172;2023-10-31T12:35:27;96568.47;;;21.99;67.51
60375;BME280;70244;48.792;9.172;2023-10-31T12:37:58;96568.58;;;22.07;67.22
60375;BME280;70244;48.792;9.172;2023-10-31T12:40:29;96572.88;;;22.27;66.82
60375;BME280;70244;48.792;9.172;2023-10-31T12:42:59;96569.80;;;22.15;67.14
60375;BME280;70244;48.792;9.172;2023-10-31T12:45:30;96574.40;;;21.97;67.59
60375;BME280;70244;48.792;9.172;2023-10-31T12:48:01;96571.95;;;22.32;66.65
60375;BME280;70244;48.792;9.172;2023-10-31T12:50:32;96573.13;;;22.09;67.34
60375;BME280;70244;48.792;9.172;2023-10-31T12:53:02;96571.29;;;22.02;67.52
60375;BME280;70244;48.792;9.172;2023-10-31T12:55:38;96573.59;;;22.18;66.61
60375;BME280;70244;48.792;9.172;2023-10-31T12:58:03;96573.41;;;21.78;68.40
60375;BME280;70244;48.792;9.172;2023-10-31T13:00:35;96579.80;;;21.90;68.01
60375;BME280;70244;48.792;9.172;2023-10-31T13:03:06;96576.49;;;21.77;68.17
60375;BME280;70244;48.792;9.172;2023-10-31T13:05:34;96578.78;;;22.01;67.50
60375;BME280;70244;48.792;9.172;2023-10-31T13:08:13;96576.52;;;22.15;67.08
60375;BME280;70244;48.792;9.172;2023-10-31T13:10:36;96578.43;;;22.20;66.86
60375;BME280;70244;48.792;9.172;2023-10-31T13:13:06;96583.07;;;22.18;67.10
60375;BME280;70244;48.792;9.172;2023-10-31T13:15:36;96585.46;;;22.39;66.66
60375;BME280;70244;48.792;9.172;2023-10-31T13:18:07;96585.17;;;22.37;66.42
60375;BME280;70244;48.792;9.172;2023-10-31T13:20:37;96587.79;;;22.24;66.98
60375;BME280;70244;48.792;9.172;2023-10-31T13:23:08;96585.48;;;22.70;65.54
60375;BME280;70244;48.792;9.172;2023-10-31T13:25:39;96589.97;;;22.98;64.78
60375;BME280;70244;48.792;9.172;2023-10-31T13:28:09;96593.85;;;22.58;65.83
60375;BME280;70244;48.792;9.172;2023-10-31T13:30:40;96591.58;;;22.78;65.06
60375;BME280;70244;48.792;9.172;2023-10-31T13:33:10;96598.54;;;22.29;66.51
60375;BME280;70244;48.792;9.172;2023-10-31T13:35:41;96598.91;;;22.33;66.02
60375;BME280;70244;48.792;9.172;2023-10-31T13:38:12;96603.29;;;22.46;66.24
60375;BME280;70244;48.792;9.172;2023-10-31T13:40:42;96606.72;;;22.20;67.03
60375;BME280;70244;48.792;9.172;2023-10-31T13:43:13;96609.33;;;22.40;66.43
60375;BME280;70244;48.792;9.172;2023-10-31T13:45:43;96613.01;;;22.34;67.31
60375;BME280;70244;48.792;9.172;2023-10-31T13:48:14;96617.00;;;22.35;67.46
60375;BME280;70244;48.792;9.172;2023-10-31T13:50:44;96618.72;;;22.38;67.38
60375;BME280;70244;48.792;9.172;2023-10-31T13:53:15;96619.14;;;22.26;67.44
60375;BME280;70244;48.792;9.172;2023-10-31T13:55:45;96623.81;;;22.57;66.40
60375;BME280;70244;48.792;9.172;2023-10-31T13:58:16;96623.32;;;22.16;67.78
60375;BME280;70244;48.792;9.172;2023-10-31T14:00:46;96629.35;;;22.19;67.72
60375;BME280;70244;48.792;9.172;2023-10-31T14:03:17;96627.05;;;22.24;67.67
60375;BME280;70244;48.792;9.172;2023-10-31T14:05:48;96626.99;;;22.18;67.84
60375;BME280;70244;48.792;9.172;2023-10-31T14:08:19;96627.89;;;22.13;68.03
60375;BME280;70244;48.792;9.172;2023-10-31T14:10:49;96632.45;;;21.95;68.39
60375;BME280;70244;48.792;9.172;2023-10-31T14:13:20;96635.35;;;21.96;68.23
60375;BME280;70244;48.792;9.172;2023-10-31T14:15:51;96634.42;;;22.06;68.03
60375;BME280;70244;48.792;9.172;2023-10-31T14:18:21;96635.55;;;22.14;67.44
60375;BME280;70244;48.792;9.172;2023-10-31T14:20:52;96637.21;;;22.10;67.57
60375;BME280;70244;48.792;9.172;2023-10-31T14:23:23;96637.89;;;22.25;67.10
60375;BME280;70244;48.792;9.172;2023-10-31T14:25:53;96641.27;;;22.08;67.39
60375;BME280;70244;48.792;9.172;2023-10-31T14:28:24;96645.16;;;22.05;67.50
60375;BME280;70244;48.792;9.172;2023-10-31T14:30:54;96651.97;;;22.02;67.64
60375;BME280;70244;48.792;9.172;2023-10-31T14:33:25;96650.73;;;22.08;67.40
60375;BME280;70244;48.792;9.172;2023-10-31T14:35:56;96652.29;;;21.75;68.20
60375;BME280;70244;48.792;9.172;2023-10-31T14:38:26;96655.55;;;21.82;67.94
60375;BME280;70244;48.792;9.172;2023-10-31T14:40:57;96657.19;;;21.49;69.52
60375;BME280;70244;48.792;9.172;2023-10-31T14:43:28;96659.54;;;21.41;69.43
60375;BME280;70244;48.792;9.172;2023-10-31T14:45:59;96664.05;;;21.85;68.50
60375;BME280;70244;48.792;9.172;2023-10-31T14:48:29;96665.90;;;22.24;67.04
60375;BME280;70244;48.792;9.172;2023-10-31T14:51:00;96667.11;;;22.68;65.90
60375;BME280;70244;48.792;9.172;2023-10-31T14:53:30;96664.93;;;22.38;66.51
60375;BME280;70244;48.792;9.172;2023-10-31T14:56:01;96663.83;;;22.51;65.76
60375;BME280;70244;48.792;9.172;2023-10-31T14:58:32;96668.30;;;22.53;66.03
60375;BME280;70244;48.792;9.172;2023-10-31T15:01:03;96670.68;;;22.49;65.76
60375;BME280;70244;48.792;9.172;2023-10-31T15:03:33;96668.39;;;21.72;68.34
60375;BME280;70244;48.792;9.172;2023-10-31T15:06:04;96674.06;;;21.57;68.67
60375;BME280;70244;48.792;9.172;2023-10-31T15:08:34;96679.88;;;22.06;68.10
60375;BME280;70244;48.792;9.172;2023-10-31T15:11:05;96681.95;;;21.97;68.38
60375;BME280;70244;48.792;9.172;2023-10-31T15:13:36;96682.34;;;22.21;68.01
60375;BME280;70244;48.792;9.172;2023-10-31T15:16:07;96680.21;;;22.14;67.85
60375;BME280;70244;48.792;9.172;2023-10-31T15:18:37;96688.92;;;22.27;67.23
60375;BME280;70244;48.792;9.172;2023-10-31T15:21:08;96690.60;;;22.22;67.37
60375;BME280;70244;48.792;9.172;2023-10-31T15:23:39;96690.72;;;21.80;68.52
60375;BME280;70244;48.792;9.172;2023-10-31T15:26:09;96698.10;;;22.13;67.36
60375;BME280;70244;48.792;9.172;2023-10-31T15:28:40;96703.22;;;21.39;69.79
60375;BME280;70244;48.792;9.172;2023-10-31T15:31:11;96704.06;;;21.84;68.36
60375;BME280;70244;48.792;9.172;2023-10-31T15:33:41;96703.74;;;21.73;68.65
60375;BME280;70244;48.792;9.172;2023-10-31T15:36:12;96707.95;;;21.77;68.90
60375;BME280;70244;48.792;9.172;2023-10-31T15:38:42;96717.31;;;21.85;68.54
60375;BME280;70244;48.792;9.172;2023-10-31T15:41:13;96717.92;;;21.86;68.10
60375;BME280;70244;48.792;9.172;2023-10-31T15:43:44;96719.19;;;21.32;70.27
60375;BME280;70244;48.792;9.172;2023-10-31T15:46:14;96720.44;;;21.40;70.80
60375;BME280;70244;48.792;9.172;2023-10-31T15:48:45;96727.37;;;21.76;69.92
60375;BME280;70244;48.792;9.172;2023-10-31T15:51:16;96731.69;;;22.01;69.43
60375;BME280;70244;48.792;9.172;2023-10-31T15:53:47;96734.20;;;21.11;71.93
60375;BME280;70244;48.792;9.172;2023-10-31T15:56:17;96734.46;;;21.52;71.46
60375;BME280;70244;48.792;9.172;2023-10-31T15:58:48;96736.48;;;22.29;69.63
60375;BME280;70244;48.792;9.172;2023-10-31T16:01:18;96735.93;;;22.16;70.97
60375;BME280;70244;48.792;9.172;2023-10-31T16:03:49;96743.42;;;21.79;72.49
60375;BME280;70244;48.792;9.172;2023-10-31T16:06:19;96745.40;;;21.76;73.13
60375;BME280;70244;48.792;9.172;2023-10-31T16:08:50;96751.05;;;22.11;72.06
60375;BME280;70244;48.792;9.172;2023-10-31T16:11:21;96754.28;;;22.70;69.50
60375;BME280;70244;48.792;9.172;2023-10-31T16:13:51;96757.61;;;23.17;68.64
60375;BME280;70244;48.792;9.172;2023-10-31T16:16:21;96760.61;;;23.41;67.95
60375;BME280;70244;48.792;9.172;2023-10-31T16:18:53;96767.05;;;23.45;66.76
60375;BME280;70244;48.792;9.172;2023-10-31T16:21:23;96774.35;;;23.39;67.64
60375;BME280;70244;48.792;9.172;2023-10-31T16:23:53;96777.51;;;24.43;64.66
60375;BME280;70244;48.792;9.172;2023-10-31T16:26:24;96780.22;;;24.56;62.67
60375;BME280;70244;48.792;9.172;2023-10-31T16:28:54;96781.07;;;24.85;62.05
60375;BME280;70244;48.792;9.172;2023-10-31T16:31:25;96778.53;;;24.81;61.98
60375;BME280;70244;48.792;9.172;2023-10-31T16:33:55;96782.76;;;24.92;61.32
60375;BME280;70244;48.792;9.172;2023-10-31T16:36:26;96785.87;;;24.59;62.40
60375;BME280;70244;48.792;9.172;2023-10-31T16:38:56;96789.84;;;24.90;61.61
60375;BME280;70244;48.792;9.172;2023-10-31T16:41:27;96797.27;;;24.36;62.88
60375;BME280;70244;48.792;9.172;2023-10-31T16:43:57;96805.70;;;24.83;60.47
60375;BME280;70244;48.792;9.172;2023-10-31T16:46:28;96810.34;;;25.02;60.08
60375;BME280;70244;48.792;9.172;2023-10-31T16:48:59;96815.34;;;25.04;60.08
60375;BME280;70244;48.792;9.172;2023-10-31T16:51:29;96815.15;;;24.94;60.35
60375;BME280;70244;48.792;9.172;2023-10-31T16:54:00;96817.02;;;24.85;60.50
60375;BME280;70244;48.792;9.172;2023-10-31T16:56:30;96826.56;;;25.10;60.16
60375;BME280;70244;48.792;9.172;2023-10-31T16:59:01;96833.74;;;24.28;62.08
60375;BME280;70244;48.792;9.172;2023-10-31T17:01:31;96835.64;;;24.47;61.56
60375;BME280;70244;48.792;9.172;2023-10-31T17:04:02;96835.08;;;24.66;61.03
60375;BME280;70244;48.792;9.172;2023-10-31T17:06:33;96835.84;;;24.59;61.18
60375;BME280;70244;48.792;9.172;2023-10-31T17:09:03;96837.54;;;24.54;61.36
60375;BME280;70244;48.792;9.172;2023-10-31T17:11:34;96837.70;;;24.35;61.65
60375;BME280;70244;48.792;9.172;2023-10-31T17:14:04;96838.52;;;24.57;60.72
60375;BME280;70244;48.792;9.172;2023-10-31T17:16:35;96844.06;;;24.56;60.87
60375;BME280;70244;48.792;9.172;2023-10-31T17:19:06;96849.70;;;24.46;60.96
60375;BME280;70244;48.792;9.172;2023-10-31T17:21:37;96857.43;;;24.11;61.90
60375;BME280;70244;48.792;9.172;2023-10-31T17:24:08;96859.50;;;24.32;61.42
60375;BME280;70244;48.792;9.172;2023-10-31T17:26:38;96867.48;;;24.18;61.70
60375;BME280;70244;48.792;9.172;2023-10-31T17:29:09;96867.37;;;23.92;62.24
60375;BME280;70244;48.792;9.172;2023-10-31T17:31:39;96868.59;;;23.81;62.88
60375;BME280;70244;48.792;9.172;2023-10-31T17:34:10;96872.68;;;23.38;64.10
60375;BME280;70244;48.792;9.172;2023-10-31T17:36:40;96874.40;;;23.44;63.92
60375;BME280;70244;48.792;9.172;2023-10-31T17:39:11;96877.21;;;23.59;63.05
60375;BME280;70244;48.792;9.172;2023-10-31T17:41:42;96875.71;;;23.56;63.39
60375;BME280;70244;48.792;9.172;2023-10-31T17:44:12;96883.71;;;23.44;63.73
60375;BME280;70244;48.792;9.172;2023-10-31T17:46:43;96885.47;;;23.39;63.71
60375;BME280;70244;48.792;9.172;2023-10-31T17:49:14;96884.34;;;22.92;65.41
60375;BME280;70244;48.792;9.172;2023-10-31T17:51:44;96887.14;;;22.58;66.50
60375;BME280;70244;48.792;9.172;2023-10-31T17:54:15;96890.26;;;23.02;65.08
60375;BME280;70244;48.792;9.172;2023-10-31T17:56:45;96899.55;;;23.18;64.31
60375;BME280;70244;48.792;9.172;2023-10-31T17:59:16;96904.99;;;22.94;65.04
60375;BME280;70244;48.792;9.172;2023-10-31T18:01:47;96908.30;;;22.94;65.16
60375;BME280;70244;48.792;9.172;2023-10-31T18:04:17;96908.44;;;22.70;65.77
60375;BME280;70244;48.792;9.172;2023-10-31T18:06:48;96909.43;;;22.62;66.07
60375;BME280;70244;48.792;9.172;2023-10-31T18:09:18;96916.83;;;22.80;65.57
60375;BME280;70244;48.792;9.172;2023-10-31T18:11:49;96926.52;;;22.93;65.03
60375;BME280;70244;48.792;9.172;2023-10-31T18:14:20;96932.99;;;22.83;65.47
60375;BME280;70244;48.792;9.172;2023-10-31T18:16:50;96936.20;;;22.81;65.48
60375;BME280;70244;48.792;9.172;2023-10-31T18:19:21;96939.47;;;22.85;65.62
60375;BME280;70244;48.792;9.172;2023-10-31T18:21:51;96946.30;;;22.50;66.93
60375;BME280;70244;48.792;9.172;2023-10-31T18:24:22;96949.39;;;22.57;66.42
60375;BME280;70244;48.792;9.172;2023-10-31T18:26:52;96948.33;;;22.79;65.94
60375;BME280;70244;48.792;9.172;2023-10-31T18:29:23;96946.60;;;22.65;66.26
60375;BME280;70244;48.792;9.172;2023-10-31T18:31:54;96948.11;;;22.79;65.57
60375;BME280;70244;48.792;9.172;2023-10-31T18:34:25;96954.74;;;22.57;66.70
60375;BME280;70244;48.792;9.172;2023-10-31T18:36:55;96957.01;;;22.55;66.60
60375;BME280;70244;48.792;9.172;2023-10-31T18:39:26;96957.10;;;22.38;67.13